createdAt,value
2018-01-17T00:00:48.352Z,4.73
2018-01-17T00:01:49.165Z,4.7
2018-01-17T00:02:48.481Z,4.72
2018-01-17T00:03:48.243Z,4.74
2018-01-17T00:04:48.559Z,4.76
2018-01-17T00:05:48.385Z,4.74
2018-01-17T00:06:48.776Z,4.76
2018-01-17T00:07:48.103Z,4.76
2018-01-17T00:08:48.771Z,4.74
2018-01-17T00:09:48.194Z,4.74
2018-01-17T00:10:48.351Z,4.76
2018-01-17T00:11:48.792Z,4.74
2018-01-17T00:12:48.515Z,4.79
2018-01-17T00:13:48.327Z,4.76
2018-01-17T00:14:48.502Z,4.76
2018-01-17T00:15:48.366Z,4.74
2018-01-17T00:16:48.284Z,4.73
2018-01-17T00:17:48.377Z,4.74
2018-01-17T00:18:48.399Z,4.73
2018-01-17T00:19:49.024Z,4.77
2018-01-17T00:20:48.531Z,4.74
2018-01-17T00:21:48.325Z,4.73
2018-01-17T00:22:48.430Z,4.73
2018-01-17T00:23:48.354Z,4.76
2018-01-17T00:24:48.084Z,4.76
2018-01-17T00:25:48.489Z,4.77
2018-01-17T00:26:48.493Z,4.76
2018-01-17T00:27:48.260Z,4.77
2018-01-17T00:28:48.386Z,4.79
2018-01-17T00:29:48.141Z,4.77
2018-01-17T00:30:48.398Z,4.79
2018-01-17T00:31:48.152Z,4.77
2018-01-17T00:32:48.116Z,4.76
2018-01-17T00:33:48.323Z,4.77
2018-01-17T00:34:49.013Z,4.79
2018-01-17T00:35:48.148Z,4.81
2018-01-17T00:36:48.218Z,4.8
2018-01-17T00:37:48.241Z,4.8
2018-01-17T00:38:48.302Z,4.8
2018-01-17T00:39:48.529Z,4.77
2018-01-17T00:40:48.467Z,4.76
2018-01-17T00:41:48.384Z,4.79
2018-01-17T00:42:48.413Z,4.8
2018-01-17T00:43:48.223Z,4.8
2018-01-17T00:44:48.166Z,4.8
2018-01-17T00:45:48.141Z,4.79
2018-01-17T00:46:48.326Z,4.8
2018-01-17T00:47:48.130Z,4.79
2018-01-17T00:48:48.375Z,4.76
2018-01-17T00:50:48.318Z,4.72
2018-01-17T00:51:48.276Z,4.73
2018-01-17T00:52:49.051Z,4.74
2018-01-17T00:53:48.335Z,4.72
2018-01-17T00:54:48.326Z,4.76
2018-01-17T00:55:48.277Z,4.74
2018-01-17T00:56:48.326Z,4.77
2018-01-17T00:57:48.351Z,4.77
2018-01-17T00:58:48.369Z,4.77
2018-01-17T00:59:48.377Z,4.77
2018-01-17T01:00:48.076Z,4.77
2018-01-17T01:01:48.492Z,4.77
2018-01-17T01:02:48.058Z,4.76
2018-01-17T01:03:48.573Z,4.76
2018-01-17T01:04:48.610Z,4.77
2018-01-17T01:05:48.200Z,4.77
2018-01-17T01:06:48.914Z,4.79
2018-01-17T01:07:48.317Z,4.74
2018-01-17T01:08:48.108Z,4.76
2018-01-17T01:09:48.395Z,4.77
2018-01-17T01:10:48.508Z,4.76
2018-01-17T01:11:48.303Z,4.76
2018-01-17T01:12:48.623Z,4.76
2018-01-17T01:13:48.320Z,4.77
2018-01-17T01:14:48.497Z,4.74
2018-01-17T01:15:48.501Z,4.74
2018-01-17T01:16:48.764Z,4.76
2018-01-17T01:17:48.676Z,4.76
2018-01-17T01:18:49.232Z,4.77
2018-01-17T01:19:49.146Z,4.76
2018-01-17T01:20:48.160Z,4.76
2018-01-17T01:21:48.748Z,4.77
2018-01-17T01:22:48.365Z,4.76
2018-01-17T01:23:48.556Z,4.77
2018-01-17T01:24:48.272Z,4.77
2018-01-17T01:25:48.323Z,4.81
2018-01-17T01:26:48.490Z,4.84
2018-01-17T01:27:48.196Z,4.83
2018-01-17T01:28:48.785Z,4.81
2018-01-17T01:29:48.511Z,4.84
2018-01-17T01:30:48.063Z,4.86
2018-01-17T01:31:48.369Z,4.87
2018-01-17T01:32:48.368Z,4.88
2018-01-17T01:33:48.567Z,4.88
2018-01-17T01:34:48.504Z,4.91
2018-01-17T01:35:48.334Z,4.94
2018-01-17T01:36:48.562Z,5
2018-01-17T01:37:48.531Z,5
2018-01-17T01:38:48.613Z,5
2018-01-17T01:39:48.637Z,5.01
2018-01-17T01:40:48.289Z,5.05
2018-01-17T01:41:48.433Z,5.1
2018-01-17T01:42:48.687Z,5.11
2018-01-17T01:43:48.538Z,5.08
2018-01-17T01:44:48.415Z,5.11
2018-01-17T01:45:48.320Z,5.1
2018-01-17T01:46:48.276Z,5.14
2018-01-17T01:47:48.333Z,5.12
2018-01-17T01:48:48.598Z,5.12
2018-01-17T01:49:48.490Z,5.15
2018-01-17T01:50:48.628Z,5.14
2018-01-17T01:51:48.312Z,5.15
2018-01-17T01:52:48.187Z,5.18
2018-01-17T01:53:48.202Z,5.18
2018-01-17T01:54:49.178Z,5.19
2018-01-17T01:55:48.234Z,5.21
2018-01-17T01:56:48.422Z,5.18
2018-01-17T01:57:48.182Z,5.21
2018-01-17T01:58:48.173Z,5.22
2018-01-17T01:59:48.532Z,5.26
2018-01-17T02:00:48.277Z,5.25
2018-01-17T02:01:49.365Z,5.28
2018-01-17T02:02:48.200Z,5.26
2018-01-17T02:03:48.526Z,5.26
2018-01-17T02:04:48.492Z,5.3
2018-01-17T02:05:48.286Z,5.3
2018-01-17T02:06:48.931Z,5.33
2018-01-17T02:07:48.551Z,5.3
2018-01-17T02:08:48.242Z,5.32
2018-01-17T02:09:48.644Z,5.32
2018-01-17T02:10:48.653Z,5.32
2018-01-17T02:11:48.417Z,5.32
2018-01-17T02:12:48.444Z,5.38
2018-01-17T02:13:48.366Z,5.33
2018-01-17T02:14:48.751Z,5.32
2018-01-17T02:15:48.450Z,5.35
2018-01-17T02:16:49.437Z,5.35
2018-01-17T02:17:48.561Z,5.32
2018-01-17T02:18:48.469Z,5.33
2018-01-17T02:19:48.564Z,5.35
2018-01-17T02:20:48.629Z,5.33
2018-01-17T02:21:48.420Z,5.35
2018-01-17T02:22:48.630Z,5.33
2018-01-17T02:23:48.264Z,5.35
2018-01-17T02:24:48.291Z,5.36
2018-01-17T02:25:48.344Z,5.35
2018-01-17T02:26:48.499Z,5.36
2018-01-17T02:27:48.370Z,5.38
2018-01-17T02:28:48.537Z,5.38
2018-01-17T02:29:48.656Z,5.38
2018-01-17T02:30:48.221Z,5.36
2018-01-17T02:31:48.332Z,5.36
2018-01-17T02:32:48.319Z,5.35
2018-01-17T02:33:48.415Z,5.35
2018-01-17T02:34:48.627Z,5.36
2018-01-17T02:35:48.438Z,5.35
2018-01-17T02:36:48.512Z,5.36
2018-01-17T02:37:48.417Z,5.38
2018-01-17T02:38:48.622Z,5.38
2018-01-17T02:39:48.654Z,5.36
2018-01-17T02:40:48.415Z,5.28
2018-01-17T02:41:48.614Z,5.1
2018-01-17T02:42:48.508Z,5.04
2018-01-17T02:43:48.834Z,4.93
2018-01-17T02:44:48.555Z,4.91
2018-01-17T02:45:48.369Z,4.88
2018-01-17T02:46:48.647Z,4.87
2018-01-17T02:47:48.745Z,4.83
2018-01-17T02:48:48.700Z,4.79
2018-01-17T02:49:48.512Z,4.74
2018-01-17T02:50:48.768Z,4.76
2018-01-17T02:51:48.476Z,4.76
2018-01-17T02:52:48.505Z,4.73
2018-01-17T02:53:48.274Z,4.76
2018-01-17T02:54:48.535Z,4.76
2018-01-17T02:55:48.376Z,4.73
2018-01-17T02:56:48.601Z,4.76
2018-01-17T02:57:48.467Z,4.77
2018-01-17T02:58:48.561Z,4.76
2018-01-17T02:59:48.644Z,4.79
2018-01-17T03:00:48.496Z,4.8
2018-01-17T03:01:48.532Z,4.83
2018-01-17T03:02:48.681Z,4.84
2018-01-17T03:03:49.245Z,4.83
2018-01-17T03:04:48.610Z,4.83
2018-01-17T03:05:48.446Z,4.86
2018-01-17T03:06:48.575Z,4.84
2018-01-17T03:07:49.021Z,4.88
2018-01-17T03:08:48.694Z,4.88
2018-01-17T03:09:48.402Z,4.9
2018-01-17T03:10:48.746Z,4.91
2018-01-17T03:11:48.811Z,4.94
2018-01-17T03:12:48.729Z,4.94
2018-01-17T03:13:48.689Z,4.95
2018-01-17T03:14:48.672Z,4.97
2018-01-17T03:15:48.514Z,4.97
2018-01-17T03:16:48.385Z,4.98
2018-01-17T03:17:48.590Z,4.98
2018-01-17T03:18:48.589Z,5.01
2018-01-17T03:19:48.458Z,5
2018-01-17T03:20:48.726Z,5.04
2018-01-17T03:21:48.503Z,5.07
2018-01-17T03:22:48.518Z,5.11
2018-01-17T03:23:48.522Z,5.21
2018-01-17T03:24:48.753Z,5.3
2018-01-17T03:25:48.691Z,5.32
2018-01-17T03:26:48.535Z,5.35
2018-01-17T03:27:48.511Z,5.38
2018-01-17T03:28:48.555Z,5.38
2018-01-17T03:29:48.531Z,5.38
2018-01-17T03:30:48.610Z,5.35
2018-01-17T03:31:48.450Z,5.39
2018-01-17T03:32:48.616Z,5.4
2018-01-17T03:33:48.540Z,5.42
2018-01-17T03:34:48.647Z,5.43
2018-01-17T03:35:48.568Z,5.46
2018-01-17T03:36:48.667Z,5.49
2018-01-17T03:37:48.559Z,5.47
2018-01-17T03:38:48.676Z,5.43
2018-01-17T03:39:48.588Z,5.39
2018-01-17T03:40:49.513Z,5.43
2018-01-17T03:41:48.384Z,5.4
2018-01-17T03:42:49.221Z,5.4
2018-01-17T03:43:49.614Z,5.38
2018-01-17T03:44:48.583Z,5.38
2018-01-17T03:45:49.942Z,5.28
2018-01-17T03:46:48.558Z,5.21
2018-01-17T03:47:49.370Z,5.15
2018-01-17T03:48:48.656Z,5.1
2018-01-17T03:49:48.530Z,5.05
2018-01-17T03:50:48.708Z,5.04
2018-01-17T03:51:48.939Z,4.95
2018-01-17T03:52:48.460Z,5.01
2018-01-17T03:53:49.375Z,4.94
2018-01-17T03:54:48.715Z,4.94
2018-01-17T03:55:48.857Z,4.91
2018-01-17T03:56:48.509Z,4.93
2018-01-17T03:57:48.815Z,4.91
2018-01-17T03:58:48.554Z,4.88
2018-01-17T03:59:48.723Z,4.87
2018-01-17T04:00:48.586Z,4.86
2018-01-17T04:01:48.585Z,4.84
2018-01-17T04:02:49.011Z,4.84
2018-01-17T04:03:49.010Z,4.8
2018-01-17T04:04:48.480Z,4.76
2018-01-17T04:05:49.323Z,4.74
2018-01-17T04:06:49.662Z,4.73
2018-01-17T04:07:48.799Z,4.74
2018-01-17T04:08:48.684Z,4.73
2018-01-17T04:09:48.621Z,4.72
2018-01-17T04:10:48.545Z,4.7
2018-01-17T04:11:49.455Z,4.69
2018-01-17T04:12:48.608Z,4.66
2018-01-17T04:13:48.580Z,4.66
2018-01-17T04:14:48.461Z,4.66
2018-01-17T04:15:48.765Z,4.66
2018-01-17T04:16:48.634Z,4.63
2018-01-17T04:17:48.742Z,4.63
2018-01-17T04:18:48.835Z,4.6
2018-01-17T04:19:48.853Z,4.56
2018-01-17T04:20:49.122Z,4.53
2018-01-17T04:21:49.397Z,4.52
2018-01-17T04:22:48.797Z,4.46
2018-01-17T04:23:48.760Z,4.46
2018-01-17T04:24:48.676Z,4.43
2018-01-17T04:25:49.115Z,4.51
2018-01-17T04:26:48.580Z,4.49
2018-01-17T04:27:49.025Z,4.48
2018-01-17T04:28:48.576Z,4.48
2018-01-17T04:29:48.759Z,4.49
2018-01-17T04:30:48.566Z,4.51
2018-01-17T04:31:48.686Z,4.49
2018-01-17T04:32:48.804Z,4.51
2018-01-17T04:33:48.773Z,4.48
2018-01-17T04:34:48.795Z,4.49
2018-01-17T04:35:48.686Z,4.48
2018-01-17T04:36:48.533Z,4.51
2018-01-17T04:37:48.860Z,4.48
2018-01-17T04:38:48.560Z,4.48
2018-01-17T04:39:48.668Z,4.48
2018-01-17T04:40:48.812Z,4.45
2018-01-17T04:41:48.933Z,4.39
2018-01-17T04:42:48.923Z,4.28
2018-01-17T04:43:49.158Z,4.3
2018-01-17T04:44:49.593Z,4.28
2018-01-17T04:45:49.776Z,4.26
2018-01-17T04:46:50.651Z,4.24
2018-01-17T04:47:50.173Z,4.21
2018-01-17T04:48:49.833Z,4.22
2018-01-17T04:49:49.774Z,4.22
2018-01-17T04:50:49.844Z,4.21
2018-01-17T04:51:49.605Z,4.21
2018-01-17T04:52:50.030Z,4.19
2018-01-17T04:53:49.516Z,4.18
2018-01-17T04:54:49.931Z,4.17
2018-01-17T04:55:49.976Z,4.18
2018-01-17T04:56:50.006Z,4.17
2018-01-17T04:57:49.997Z,4.15
2018-01-17T04:58:50.033Z,4.12
2018-01-17T04:59:51.025Z,4.12
2018-01-17T05:00:49.827Z,4.11
2018-01-17T05:01:49.220Z,4.11
2018-01-17T05:02:49.832Z,4.11
2018-01-17T05:03:50.066Z,4.08
2018-01-17T05:04:49.970Z,4.08
2018-01-17T05:05:50.813Z,4.01
2018-01-17T05:06:49.893Z,3.98
2018-01-17T05:07:49.682Z,3.98
2018-01-17T05:08:49.857Z,3.97
2018-01-17T05:09:49.814Z,3.96
2018-01-17T05:10:49.807Z,3.96
2018-01-17T05:11:50.535Z,3.98
2018-01-17T05:12:49.778Z,4.01
2018-01-17T05:13:49.714Z,4.01
2018-01-17T05:14:49.656Z,4.04
2018-01-17T05:15:50.095Z,4.07
2018-01-17T05:16:49.837Z,4.05
2018-01-17T05:17:50.152Z,4.05
2018-01-17T05:18:51.270Z,4.01
2018-01-17T05:19:49.561Z,4
2018-01-17T05:20:49.803Z,3.98
2018-01-17T05:21:49.924Z,3.98
2018-01-17T05:22:49.847Z,4
2018-01-17T05:23:50.060Z,3.96
2018-01-17T05:24:49.981Z,3.91
2018-01-17T05:25:49.771Z,3.94
2018-01-17T05:26:50.473Z,3.96
2018-01-17T05:27:49.756Z,3.94
2018-01-17T05:28:49.787Z,3.93
2018-01-17T05:29:49.990Z,3.97
2018-01-17T05:30:49.468Z,3.94
2018-01-17T05:31:50.017Z,3.9
2018-01-17T05:32:51.393Z,3.9
2018-01-17T05:33:49.995Z,3.89
2018-01-17T05:34:50.573Z,3.89
2018-01-17T05:35:49.528Z,3.91
2018-01-17T05:36:49.985Z,3.91
2018-01-17T05:37:49.887Z,3.9
2018-01-17T05:38:49.942Z,3.9
2018-01-17T05:39:50.063Z,3.93
2018-01-17T05:40:49.850Z,3.94
2018-01-17T05:41:50.205Z,3.96
2018-01-17T05:42:49.936Z,3.94
2018-01-17T05:43:49.862Z,3.97
2018-01-17T05:44:49.946Z,3.94
2018-01-17T05:45:50.088Z,4
2018-01-17T05:46:50.230Z,3.98
2018-01-17T05:47:49.885Z,4
2018-01-17T05:48:49.756Z,4
2018-01-17T05:49:49.626Z,4
2018-01-17T05:50:49.829Z,4.01
2018-01-17T05:51:49.516Z,4
2018-01-17T05:52:49.841Z,4.01
2018-01-17T05:53:50.015Z,4
2018-01-17T05:54:49.943Z,4.02
2018-01-17T05:55:49.987Z,4.01
2018-01-17T05:56:49.796Z,4
2018-01-17T05:57:50.087Z,4.02
2018-01-17T05:58:49.858Z,4.04
2018-01-17T05:59:49.865Z,4.05
2018-01-17T06:00:49.678Z,4.05
2018-01-17T06:01:49.907Z,4.07
2018-01-17T06:02:49.638Z,4.08
2018-01-17T06:03:49.700Z,4.11
2018-01-17T06:04:49.771Z,4.11
2018-01-17T06:05:49.862Z,4.11
2018-01-17T06:06:49.991Z,4.1
2018-01-17T06:07:50.426Z,3.91
2018-01-17T06:08:50.023Z,3.86
2018-01-17T06:09:49.805Z,3.76
2018-01-17T06:10:50.122Z,3.65
2018-01-17T06:11:49.797Z,3.58
2018-01-17T06:12:50.042Z,3.42
2018-01-17T06:13:49.605Z,3.35
2018-01-17T06:14:50.198Z,3.31
2018-01-17T06:15:49.898Z,3.31
2018-01-17T06:16:49.493Z,3.24
2018-01-17T06:17:49.932Z,3.25
2018-01-17T06:18:49.748Z,3.2
2018-01-17T06:19:50.078Z,3.21
2018-01-17T06:20:49.634Z,3.2
2018-01-17T06:21:49.549Z,3.14
2018-01-17T06:22:49.881Z,3.2
2018-01-17T06:23:50.083Z,3.18
2018-01-17T06:24:49.750Z,3.12
2018-01-17T06:25:49.884Z,3.12
2018-01-17T06:26:50.212Z,3.11
2018-01-17T06:27:50.026Z,3.1
2018-01-17T06:28:49.522Z,3.1
2018-01-17T06:29:50.376Z,3.14
2018-01-17T06:30:49.802Z,3.17
2018-01-17T06:31:49.965Z,3.21
2018-01-17T06:32:50.038Z,3.24
2018-01-17T06:33:49.689Z,3.18
2018-01-17T06:34:50.718Z,3.2
2018-01-17T06:35:49.792Z,3.22
2018-01-17T06:36:49.632Z,3.2
2018-01-17T06:37:50.703Z,3.22
2018-01-17T06:38:49.693Z,3.2
2018-01-17T06:39:49.807Z,3.27
2018-01-17T06:40:49.971Z,3.27
2018-01-17T06:41:49.992Z,3.24
2018-01-17T06:42:50.530Z,3.31
2018-01-17T06:43:50.300Z,3.32
2018-01-17T06:44:49.815Z,3.29
2018-01-17T06:45:50.135Z,3.25
2018-01-17T06:46:49.966Z,3.2
2018-01-17T06:47:49.881Z,3.14
2018-01-17T06:48:49.995Z,3.15
2018-01-17T06:49:50.025Z,3.18
2018-01-17T06:50:50.682Z,3.21
2018-01-17T06:51:49.751Z,3.24
2018-01-17T06:52:50.113Z,3.27
2018-01-17T06:53:50.165Z,3.25
2018-01-17T06:54:49.999Z,3.32
2018-01-17T06:55:50.057Z,3.32
2018-01-17T06:56:50.498Z,3.32
2018-01-17T06:57:50.067Z,3.37
2018-01-17T06:58:50.204Z,3.35
2018-01-17T06:59:49.638Z,3.38
2018-01-17T07:00:49.918Z,3.42
2018-01-17T07:01:49.980Z,3.45
2018-01-17T07:02:49.999Z,3.38
2018-01-17T07:03:50.010Z,3.42
2018-01-17T07:04:50.414Z,3.39
2018-01-17T07:05:50.526Z,3.42
2018-01-17T07:06:50.621Z,3.48
2018-01-17T07:07:49.958Z,3.46
2018-01-17T07:08:50.226Z,3.46
2018-01-17T07:09:50.342Z,3.51
2018-01-17T07:10:50.057Z,3.52
2018-01-17T07:11:50.040Z,3.54
2018-01-17T07:12:50.737Z,3.61
2018-01-17T07:13:50.871Z,3.59
2018-01-17T07:14:50.530Z,3.7
2018-01-17T07:15:49.783Z,3.72
2018-01-17T07:16:50.108Z,3.74
2018-01-17T07:17:50.243Z,3.73
2018-01-17T07:18:50.047Z,3.73
2018-01-17T07:19:50.278Z,3.77
2018-01-17T07:20:49.646Z,3.79
2018-01-17T07:21:51.078Z,3.84
2018-01-17T07:22:49.693Z,3.82
2018-01-17T07:23:49.937Z,3.8
2018-01-17T07:24:50.266Z,3.83
2018-01-17T07:25:50.091Z,3.87
2018-01-17T07:26:50.514Z,3.86
2018-01-17T07:27:49.998Z,3.84
2018-01-17T07:28:50.516Z,3.84
2018-01-17T07:29:50.425Z,3.86
2018-01-17T07:30:52.128Z,3.86
2018-01-17T07:31:50.369Z,3.87
2018-01-17T07:32:50.337Z,3.86
2018-01-17T07:33:51.729Z,3.87
2018-01-17T07:34:49.902Z,3.86
2018-01-17T07:35:50.283Z,3.89
2018-01-17T07:36:50.134Z,3.86
2018-01-17T07:37:49.636Z,3.84
2018-01-17T07:38:49.238Z,3.84
2018-01-17T07:39:49.175Z,3.8
2018-01-17T07:40:49.771Z,3.86
2018-01-17T07:41:49.257Z,3.8
2018-01-17T07:42:48.708Z,3.82
2018-01-17T07:43:50.396Z,3.82
2018-01-17T07:44:49.325Z,3.82
2018-01-17T07:45:47.725Z,3.82
2018-01-17T07:46:48.652Z,3.83
2018-01-17T07:47:49.198Z,3.82
2018-01-17T07:48:49.306Z,3.84
2018-01-17T07:49:49.509Z,3.82
2018-01-17T07:50:48.999Z,3.82
2018-01-17T07:51:49.313Z,3.8
2018-01-17T07:52:49.184Z,3.82
2018-01-17T07:53:49.168Z,3.82
2018-01-17T07:54:49.334Z,3.8
2018-01-17T07:55:49.934Z,3.84
2018-01-17T07:56:48.973Z,3.89
2018-01-17T07:57:49.184Z,3.87
2018-01-17T07:58:49.534Z,3.87
2018-01-17T07:59:49.142Z,3.87
2018-01-17T08:00:49.977Z,3.89
2018-01-17T08:01:49.974Z,3.9
2018-01-17T08:02:49.990Z,3.91
2018-01-17T08:03:49.306Z,3.93
2018-01-17T08:04:49.127Z,3.93
2018-01-17T08:05:50.671Z,3.96
2018-01-17T08:06:49.213Z,3.97
2018-01-17T08:07:49.517Z,3.97
2018-01-17T08:08:49.343Z,3.98
2018-01-17T08:09:49.816Z,3.97
2018-01-17T08:10:49.238Z,3.97
2018-01-17T08:11:49.025Z,3.97
2018-01-17T08:12:49.177Z,3.97
2018-01-17T08:13:49.169Z,3.98
2018-01-17T08:14:49.741Z,3.98
2018-01-17T08:15:50.612Z,4
2018-01-17T08:16:49.449Z,3.98
2018-01-17T08:17:50.388Z,4.01
2018-01-17T08:18:49.354Z,4.04
2018-01-17T08:19:49.374Z,4.05
2018-01-17T08:20:49.112Z,4.04
2018-01-17T08:21:49.005Z,4.04
2018-01-17T08:22:49.236Z,4.01
2018-01-17T08:23:49.724Z,4.04
2018-01-17T08:24:49.455Z,4.04
2018-01-17T08:25:49.240Z,4.05
2018-01-17T08:26:49.066Z,4.08
2018-01-17T08:27:48.908Z,4.11
2018-01-17T08:28:50.284Z,4.14
2018-01-17T08:29:49.387Z,4.11
2018-01-17T08:30:49.653Z,4.1
2018-01-17T08:31:49.065Z,4.11
2018-01-17T08:32:49.178Z,4.11
2018-01-17T08:33:49.371Z,4.12
2018-01-17T08:34:49.392Z,4.11
2018-01-17T08:35:49.998Z,4.15
2018-01-17T08:36:49.377Z,4.15
2018-01-17T08:37:49.435Z,4.18
2018-01-17T08:38:49.535Z,4.19
2018-01-17T08:39:49.411Z,4.15
2018-01-17T08:40:49.392Z,4.14
2018-01-17T08:41:49.035Z,4.17
2018-01-17T08:42:49.321Z,4.15
2018-01-17T08:43:49.259Z,4.15
2018-01-17T08:44:49.671Z,4.15
2018-01-17T08:45:49.380Z,4.15
2018-01-17T08:46:50.092Z,4.17
2018-01-17T08:47:49.042Z,4.18
2018-01-17T08:48:49.398Z,4.18
2018-01-17T08:49:49.190Z,4.19
2018-01-17T08:50:49.222Z,4.17
2018-01-17T08:51:49.178Z,4.15
2018-01-17T08:52:50.168Z,4.18
2018-01-17T08:53:49.452Z,4.19
2018-01-17T08:54:49.354Z,4.21
2018-01-17T08:55:50.131Z,4.21
2018-01-17T08:56:50.464Z,4.22
2018-01-17T08:57:49.748Z,4.19
2018-01-17T08:58:49.075Z,4.25
2018-01-17T08:59:50.161Z,4.28
2018-01-17T09:00:49.101Z,4.25
2018-01-17T09:01:49.474Z,4.28
2018-01-17T09:02:49.084Z,4.26
2018-01-17T09:03:49.519Z,4.28
2018-01-17T09:04:48.333Z,4.25
2018-01-17T09:05:49.770Z,4.3
2018-01-17T09:06:49.714Z,4.28
2018-01-17T09:07:49.302Z,4.28
2018-01-17T09:08:49.326Z,4.3
2018-01-17T09:09:49.568Z,4.32
2018-01-17T09:10:50.116Z,4.32
2018-01-17T09:11:50.171Z,4.32
2018-01-17T09:12:50.316Z,4.33
2018-01-17T09:13:49.459Z,4.35
2018-01-17T09:14:49.987Z,4.35
2018-01-17T09:15:49.204Z,4.32
2018-01-17T09:16:49.705Z,4.33
2018-01-17T09:17:49.380Z,4.35
2018-01-17T09:18:49.169Z,4.36
2018-01-17T09:19:49.275Z,4.38
2018-01-17T09:20:49.518Z,4.38
2018-01-17T09:21:49.073Z,4.39
2018-01-17T09:22:49.749Z,4.4
2018-01-17T09:23:49.256Z,4.38
2018-01-17T09:24:49.297Z,4.38
2018-01-17T09:25:49.652Z,4.39
2018-01-17T09:26:49.504Z,4.39
2018-01-17T09:27:49.669Z,4.4
2018-01-17T09:28:49.692Z,4.42
2018-01-17T09:29:49.781Z,4.43
2018-01-17T09:30:49.404Z,4.4
2018-01-17T09:31:49.445Z,4.4
2018-01-17T09:32:49.548Z,4.4
2018-01-17T09:33:49.753Z,4.42
2018-01-17T09:34:49.759Z,4.42
2018-01-17T09:35:49.280Z,4.43
2018-01-17T09:36:50.664Z,4.42
2018-01-17T09:37:48.961Z,4.46
2018-01-17T09:38:49.574Z,4.49
2018-01-17T09:39:50.011Z,4.49
2018-01-17T09:40:48.495Z,4.49
2018-01-17T09:41:49.429Z,4.53
2018-01-17T09:42:49.679Z,4.57
2018-01-17T09:43:49.561Z,4.6
2018-01-17T09:44:49.623Z,4.63
2018-01-17T09:45:49.761Z,4.6
2018-01-17T09:46:49.310Z,4.62
2018-01-17T09:47:49.281Z,4.62
2018-01-17T09:48:49.702Z,4.62
2018-01-17T09:49:49.756Z,4.62
2018-01-17T09:50:49.855Z,4.63
2018-01-17T09:51:50.080Z,4.62
2018-01-17T09:52:49.669Z,4.63
2018-01-17T09:53:49.409Z,4.63
2018-01-17T09:54:50.059Z,4.63
2018-01-17T09:55:49.847Z,4.59
2018-01-17T09:56:49.509Z,4.57
2018-01-17T09:57:49.580Z,4.56
2018-01-17T09:58:49.790Z,4.56
2018-01-17T09:59:49.620Z,4.51
2018-01-17T10:00:49.537Z,4.53
2018-01-17T10:01:49.759Z,4.52
2018-01-17T10:02:50.051Z,4.51
2018-01-17T10:03:50.312Z,4.52
2018-01-17T10:04:49.920Z,4.52
2018-01-17T10:05:49.781Z,4.57
2018-01-17T10:06:49.516Z,4.59
2018-01-17T10:07:49.811Z,4.59
2018-01-17T10:08:49.656Z,4.59
2018-01-17T10:09:50.079Z,4.6
2018-01-17T10:10:49.848Z,4.6
2018-01-17T10:11:49.630Z,4.6
2018-01-17T10:12:49.837Z,4.6
2018-01-17T10:13:49.809Z,4.62
2018-01-17T10:14:49.670Z,4.65
2018-01-17T10:15:49.911Z,4.69
2018-01-17T10:16:49.360Z,4.72
2018-01-17T10:17:49.501Z,4.72
2018-01-17T10:18:49.505Z,4.74
2018-01-17T10:19:49.895Z,4.77
2018-01-17T10:20:49.879Z,4.76
2018-01-17T10:21:49.896Z,4.79
2018-01-17T10:22:49.635Z,4.79
2018-01-17T10:23:49.380Z,4.79
2018-01-17T10:24:49.545Z,4.87
2018-01-17T10:25:50.918Z,4.95
2018-01-17T10:26:49.607Z,5.02
2018-01-17T10:27:49.794Z,5.04
2018-01-17T10:28:49.357Z,5.05
2018-01-17T10:29:49.129Z,5.08
2018-01-17T10:30:49.726Z,5.1
2018-01-17T10:31:49.661Z,5.12
2018-01-17T10:32:49.847Z,5.14
2018-01-17T10:33:49.559Z,5.15
2018-01-17T10:34:49.514Z,5.16
2018-01-17T10:35:50.238Z,5.18
2018-01-17T10:36:49.880Z,5.18
2018-01-17T10:37:50.498Z,5.25
2018-01-17T10:38:49.327Z,5.23
2018-01-17T10:39:49.726Z,5.28
2018-01-17T10:40:50.657Z,5.33
2018-01-17T10:41:49.777Z,5.39
2018-01-17T10:42:49.539Z,5.4
2018-01-17T10:43:50.323Z,5.42
2018-01-17T10:44:49.557Z,5.45
2018-01-17T10:45:50.131Z,5.42
2018-01-17T10:46:49.491Z,5.45
2018-01-17T10:47:50.511Z,5.46
2018-01-17T10:48:49.724Z,5.5
2018-01-17T10:49:51.026Z,5.49
2018-01-17T10:50:49.635Z,5.5
2018-01-17T10:51:49.567Z,5.5
2018-01-17T10:52:49.160Z,5.53
2018-01-17T10:53:49.378Z,5.53
2018-01-17T10:54:49.728Z,5.51
2018-01-17T10:55:49.887Z,5.46
2018-01-17T10:56:49.856Z,5.42
2018-01-17T10:57:51.119Z,5.35
2018-01-17T10:58:49.520Z,5.3
2018-01-17T10:59:49.518Z,5.28
2018-01-17T11:00:49.798Z,5.18
2018-01-17T11:01:50.497Z,5.15
2018-01-17T11:02:49.796Z,5.15
2018-01-17T11:03:50.041Z,5.1
2018-01-17T11:04:49.834Z,5.07
2018-01-17T11:05:49.791Z,5.02
2018-01-17T11:06:49.539Z,5.04
2018-01-17T11:07:50.910Z,5.01
2018-01-17T11:08:49.744Z,4.97
2018-01-17T11:09:50.416Z,4.98
2018-01-17T11:10:49.920Z,4.95
2018-01-17T11:11:49.480Z,4.97
2018-01-17T11:12:50.955Z,4.94
2018-01-17T11:13:49.711Z,4.94
2018-01-17T11:14:49.834Z,4.94
2018-01-17T11:15:49.920Z,4.94
2018-01-17T11:16:49.923Z,4.94
2018-01-17T11:17:50.363Z,4.98
2018-01-17T11:18:49.669Z,4.94
2018-01-17T11:19:49.949Z,4.95
2018-01-17T11:20:49.585Z,4.95
2018-01-17T11:21:49.472Z,4.91
2018-01-17T11:22:49.760Z,4.93
2018-01-17T11:23:49.684Z,4.93
2018-01-17T11:24:50.273Z,4.94
2018-01-17T11:25:49.893Z,4.94
2018-01-17T11:26:49.813Z,4.91
2018-01-17T11:27:49.618Z,4.9
2018-01-17T11:28:49.969Z,4.9
2018-01-17T11:29:50.182Z,4.95
2018-01-17T11:30:50.342Z,5.02
2018-01-17T11:31:49.643Z,5.05
2018-01-17T11:32:49.875Z,5.11
2018-01-17T11:33:49.669Z,5.19
2018-01-17T11:34:50.263Z,5.18
2018-01-17T11:35:50.005Z,5.14
2018-01-17T11:36:50.339Z,5.11
2018-01-17T11:37:50.074Z,5.14
2018-01-17T11:38:50.108Z,5.16
2018-01-17T11:39:49.442Z,5.14
2018-01-17T11:40:50.387Z,5.12
2018-01-17T11:41:50.131Z,5.11
2018-01-17T11:42:50.043Z,5.08
2018-01-17T11:43:50.009Z,5.08
2018-01-17T11:44:50.163Z,5.05
2018-01-17T11:45:49.756Z,5.05
2018-01-17T11:46:50.001Z,5.05
2018-01-17T11:47:50.050Z,5.04
2018-01-17T11:48:49.711Z,5.04
2018-01-17T11:49:50.012Z,5.02
2018-01-17T11:50:49.812Z,5.01
2018-01-17T11:51:50.319Z,5.01
2018-01-17T11:52:49.494Z,5.02
2018-01-17T11:53:49.674Z,5.04
2018-01-17T11:54:49.763Z,5.05
2018-01-17T11:55:49.862Z,5.04
2018-01-17T11:56:50.386Z,4.97
2018-01-17T11:57:50.173Z,4.98
2018-01-17T11:58:50.114Z,5
2018-01-17T11:59:49.916Z,5.02
2018-01-17T12:00:50.908Z,5.04
2018-01-17T12:01:50.784Z,5.02
2018-01-17T12:02:49.573Z,5.08
2018-01-17T12:03:49.735Z,5.04
2018-01-17T12:04:49.863Z,5.08
2018-01-17T12:05:49.817Z,5.08
2018-01-17T12:06:49.871Z,5.11
2018-01-17T12:07:50.049Z,5.18
2018-01-17T12:08:49.826Z,5.21
2018-01-17T12:09:50.329Z,5.21
2018-01-17T12:10:50.156Z,5.23
2018-01-17T12:11:49.786Z,5.28
2018-01-17T12:12:49.813Z,5.35
2018-01-17T12:13:50.138Z,5.42
2018-01-17T12:14:50.560Z,5.45
2018-01-17T12:15:49.485Z,5.46
2018-01-17T12:16:50.201Z,5.47
2018-01-17T12:17:51.405Z,5.5
2018-01-17T12:18:49.843Z,5.47
2018-01-17T12:19:49.972Z,5.47
2018-01-17T12:20:49.542Z,5.54
2018-01-17T12:21:49.757Z,5.56
2018-01-17T12:22:49.870Z,5.57
2018-01-17T12:23:49.696Z,5.57
2018-01-17T12:24:49.934Z,5.54
2018-01-17T12:25:49.848Z,5.5
2018-01-17T12:26:50.354Z,5.51
2018-01-17T12:27:49.872Z,5.51
2018-01-17T12:28:50.024Z,5.42
2018-01-17T12:29:49.939Z,5.35
2018-01-17T12:30:49.849Z,5.35
2018-01-17T12:31:50.004Z,5.26
2018-01-17T12:32:51.958Z,5.28
2018-01-17T12:33:50.183Z,5.32
2018-01-17T12:34:49.809Z,5.36
2018-01-17T12:35:49.683Z,5.4
2018-01-17T12:36:49.722Z,5.45
2018-01-17T12:37:49.870Z,5.47
2018-01-17T12:38:49.754Z,5.57
2018-01-17T12:39:49.870Z,5.57
2018-01-17T12:40:50.215Z,5.62
2018-01-17T12:41:50.410Z,5.63
2018-01-17T12:42:50.118Z,5.7
2018-01-17T12:43:50.072Z,5.77
2018-01-17T12:44:50.153Z,5.8
2018-01-17T12:45:49.798Z,5.8
2018-01-17T12:46:51.122Z,5.83
2018-01-17T12:47:50.632Z,5.83
2018-01-17T12:48:49.923Z,5.85
2018-01-17T12:49:49.942Z,5.78
2018-01-17T12:50:49.981Z,5.74
2018-01-17T12:51:49.835Z,5.73
2018-01-17T12:52:50.531Z,5.67
2018-01-17T12:53:49.839Z,5.67
2018-01-17T12:54:50.256Z,5.69
2018-01-17T12:58:50.498Z,5.7
2018-01-17T12:59:49.915Z,5.75
2018-01-17T13:00:49.703Z,5.77
2018-01-17T13:01:48.824Z,5.75
2018-01-17T13:02:48.912Z,5.8
2018-01-17T13:03:48.755Z,5.81
2018-01-17T13:04:48.798Z,5.78
2018-01-17T13:05:49.017Z,5.74
2018-01-17T13:06:48.869Z,5.77
2018-01-17T13:07:49.174Z,5.77
2018-01-17T13:08:48.663Z,5.74
2018-01-17T13:09:49.177Z,5.71
2018-01-17T13:10:48.776Z,5.78
2018-01-17T13:11:48.904Z,5.77
2018-01-17T13:12:49.022Z,5.78
2018-01-17T13:13:48.881Z,5.83
2018-01-17T13:14:48.833Z,5.81
2018-01-17T13:15:49.102Z,5.78
2018-01-17T13:16:48.765Z,5.78
2018-01-17T13:17:48.642Z,5.78
2018-01-17T13:18:49.047Z,5.78
2018-01-17T13:19:48.731Z,5.8
2018-01-17T13:20:49.217Z,5.74
2018-01-17T13:21:48.773Z,5.77
2018-01-17T13:22:48.752Z,5.75
2018-01-17T13:23:48.974Z,5.7
2018-01-17T13:24:48.743Z,5.67
2018-01-17T13:25:48.828Z,5.69
2018-01-17T13:26:48.814Z,5.64